Time;durP1;ratioP1;P1;durP2;ratioP2;P2;SDS_P1;SDS_P2;PMS_P1;PMS_P2;Temp;Humidity;BMP_temperature;BMP_pressure;BME280_temperature;BME280_humidity;BME280_pressure;Samples;Min_cycle;Max_cycle;Signal;HPM_P1;HPM_P2
2023/02/12 00:01:08;;;;;;;43.63;23.87;;;3.90;99.90;;;;;;486553;244;27474;-75
2023/02/12 00:03:09;;;;;;;40.78;24.98;;;3.90;99.90;;;;;;486542;244;27566;-77
2023/02/12 00:05:10;;;;;;;32.58;19.08;;;3.90;99.90;;;;;;486510;244;27870;-76
2023/02/12 00:07:11;;;;;;;41.58;23.38;;;3.90;99.90;;;;;;486488;244;27437;-76
2023/02/12 00:09:13;;;;;;;39.20;21.35;;;3.90;99.90;;;;;;486508;244;27494;-75
2023/02/12 00:11:14;;;;;;;40.12;22.48;;;4.00;99.90;;;;;;486538;244;27439;-77
2023/02/12 00:13:15;;;;;;;35.53;20.75;;;4.00;99.90;;;;;;486538;244;27564;-76
2023/02/12 00:15:16;;;;;;;32.70;19.52;;;4.00;99.90;;;;;;486535;244;27449;-76
2023/02/12 00:17:18;;;;;;;36.42;19.83;;;4.00;99.90;;;;;;486525;244;27898;-76
2023/02/12 00:19:19;;;;;;;37.40;21.55;;;4.10;99.90;;;;;;486494;244;28103;-76
2023/02/12 00:21:20;;;;;;;32.25;19.33;;;4.10;99.90;;;;;;486546;244;27402;-75
2023/02/12 00:23:21;;;;;;;34.92;20.02;;;4.10;99.90;;;;;;486534;244;27561;-78
2023/02/12 00:25:23;;;;;;;41.00;22.37;;;4.10;99.90;;;;;;486480;244;27499;-76
2023/02/12 00:27:24;;;;;;;38.60;20.92;;;4.10;99.90;;;;;;486492;244;27505;-76
2023/02/12 00:29:25;;;;;;;34.13;20.70;;;4.00;99.90;;;;;;486499;244;28302;-75
2023/02/12 00:31:26;;;;;;;28.52;18.05;;;4.00;99.90;;;;;;486541;244;28064;-76
2023/02/12 00:33:28;;;;;;;31.20;19.27;;;4.00;99.90;;;;;;486536;244;27473;-77
2023/02/12 00:35:29;;;;;;;26.50;17.23;;;4.00;99.90;;;;;;486513;244;27450;-77
2023/02/12 00:37:30;;;;;;;30.42;18.23;;;4.00;99.90;;;;;;486494;244;27450;-75
2023/02/12 00:39:31;;;;;;;43.87;22.37;;;4.00;99.90;;;;;;486520;244;27414;-76
2023/02/12 00:41:33;;;;;;;38.47;22.65;;;4.00;99.90;;;;;;486543;244;27407;-76
2023/02/12 00:43:34;;;;;;;33.47;17.77;;;3.80;99.90;;;;;;486537;244;27945;-77
2023/02/12 00:45:36;;;;;;;28.95;16.65;;;3.90;99.90;;;;;;486481;244;27953;-77
2023/02/12 00:47:36;;;;;;;34.63;21.05;;;3.90;99.90;;;;;;486482;244;27553;-76
2023/02/12 00:49:38;;;;;;;31.55;19.75;;;3.80;99.90;;;;;;486539;244;27454;-75
2023/02/12 00:51:39;;;;;;;30.77;19.23;;;3.80;99.90;;;;;;486506;244;27441;-77
2023/02/12 00:53:40;;;;;;;29.52;18.60;;;3.90;99.90;;;;;;486532;244;27489;-77
2023/02/12 00:55:42;;;;;;;29.85;16.70;;;3.90;99.90;;;;;;486547;244;27569;-75
2023/02/12 00:57:43;;;;;;;31.85;19.27;;;3.90;99.90;;;;;;486500;244;27957;-75
2023/02/12 00:59:44;;;;;;;30.30;19.30;;;3.90;99.90;;;;;;486568;244;28135;-76
2023/02/12 01:01:45;;;;;;;28.45;18.08;;;3.90;99.90;;;;;;486523;244;27415;-76
2023/02/12 01:03:47;;;;;;;26.95;17.23;;;3.90;99.90;;;;;;486513;244;27441;-76
2023/02/12 01:05:48;;;;;;;30.00;18.75;;;3.90;99.90;;;;;;486480;244;27410;-76
2023/02/12 01:07:49;;;;;;;32.85;21.12;;;3.90;99.90;;;;;;486431;244;27441;-77
2023/02/12 01:09:50;;;;;;;30.77;20.20;;;3.90;99.90;;;;;;486552;244;27497;-77
2023/02/12 01:11:52;;;;;;;36.22;21.40;;;3.90;99.90;;;;;;486566;244;27861;-76
2023/02/12 01:13:53;;;;;;;28.90;17.23;;;3.90;99.90;;;;;;486562;244;28040;-77
2023/02/12 01:15:54;;;;;;;30.62;18.73;;;3.90;99.90;;;;;;486530;244;27406;-76
2023/02/12 01:17:55;;;;;;;30.33;18.10;;;3.90;99.90;;;;;;486510;244;27534;-77
2023/02/12 01:19:57;;;;;;;31.60;19.25;;;3.90;99.90;;;;;;486540;244;27773;-76
2023/02/12 01:21:58;;;;;;;28.38;17.75;;;3.90;99.90;;;;;;486549;244;27423;-76
2023/02/12 01:23:59;;;;;;;31.62;18.80;;;3.90;99.90;;;;;;486509;244;27546;-77
2023/02/12 01:26:00;;;;;;;32.05;18.75;;;3.90;99.90;;;;;;486489;244;27862;-76
2023/02/12 01:28:02;;;;;;;32.33;18.08;;;3.90;99.90;;;;;;486472;244;28135;-76
2023/02/12 01:30:03;;;;;;;30.73;19.45;;;3.90;99.90;;;;;;486515;244;27427;-76
2023/02/12 01:32:04;;;;;;;31.23;18.12;;;3.90;99.90;;;;;;486483;244;27402;-76
2023/02/12 01:34:05;;;;;;;32.38;19.45;;;3.90;99.90;;;;;;486531;244;27498;-76
2023/02/12 01:36:07;;;;;;;29.73;18.58;;;4.00;99.90;;;;;;486499;244;27487;-76
2023/02/12 01:38:08;;;;;;;29.95;18.65;;;4.00;99.90;;;;;;486497;244;27449;-75
2023/02/12 01:40:09;;;;;;;32.72;19.98;;;4.00;99.90;;;;;;486558;244;27959;-78
2023/02/12 01:42:10;;;;;;;33.50;19.77;;;3.90;99.90;;;;;;486521;244;27422;-76
2023/02/12 01:44:12;;;;;;;31.42;17.92;;;4.00;99.90;;;;;;486521;244;27441;-75
2023/02/12 01:46:13;;;;;;;32.55;18.87;;;4.00;99.90;;;;;;486504;244;27434;-76
2023/02/12 01:48:14;;;;;;;28.30;17.50;;;4.00;99.90;;;;;;486503;244;27549;-75
2023/02/12 01:50:16;;;;;;;30.65;18.65;;;4.00;99.90;;;;;;486546;244;27446;-77
2023/02/12 01:52:19;;;;;;;35.05;19.27;;;4.00;99.90;;;;;;486527;244;27985;-76
2023/02/12 01:54:18;;;;;;;24.50;15.95;;;3.90;99.90;;;;;;486469;244;27910;-76
2023/02/12 01:56:19;;;;;;;30.35;19.02;;;3.90;99.90;;;;;;486483;244;27454;-76
2023/02/12 01:58:21;;;;;;;35.20;18.65;;;3.90;99.90;;;;;;486525;244;27494;-76
2023/02/12 02:00:22;;;;;;;28.75;17.65;;;3.90;99.90;;;;;;486528;242;27442;-76
2023/02/12 02:02:23;;;;;;;32.42;18.08;;;3.90;99.90;;;;;;486539;244;27488;-76
2023/02/12 02:04:24;;;;;;;31.02;18.92;;;3.90;99.90;;;;;;486500;244;27461;-76
2023/02/12 02:06:29;;;;;;;33.40;18.85;;;4.00;99.90;;;;;;486469;244;28825;-76
2023/02/12 02:08:27;;;;;;;27.45;17.83;;;3.90;99.90;;;;;;486339;244;27488;-76
2023/02/12 02:10:28;;;;;;;32.17;18.25;;;3.90;99.90;;;;;;486524;244;27550;-77
2023/02/12 02:14:49;;;;;;;30.20;19.00;;;3.90;99.90;;;;;;486466;244;27936;-77
2023/02/12 02:16:50;;;;;;;29.20;17.50;;;3.80;99.90;;;;;;486521;244;28041;-78
2023/02/12 02:18:51;;;;;;;27.17;17.40;;;3.80;99.90;;;;;;486529;244;27411;-76
2023/02/12 02:20:53;;;;;;;32.70;17.75;;;3.90;99.90;;;;;;486491;244;27464;-76
2023/02/12 02:22:54;;;;;;;26.95;15.98;;;3.90;99.90;;;;;;486500;244;27409;-76
2023/02/12 02:24:55;;;;;;;28.67;17.65;;;3.90;99.90;;;;;;486477;242;27526;-77
2023/02/12 02:26:56;;;;;;;35.40;19.80;;;3.90;99.90;;;;;;486535;244;28110;-76
2023/02/12 02:28:58;;;;;;;27.98;16.73;;;3.90;99.90;;;;;;486569;244;27937;-76
2023/02/12 02:30:59;;;;;;;25.75;17.00;;;3.90;99.90;;;;;;486570;244;27434;-76
2023/02/12 02:33:00;;;;;;;29.33;16.27;;;3.80;99.90;;;;;;486558;244;27495;-75
2023/02/12 02:35:01;;;;;;;23.48;16.23;;;3.90;99.90;;;;;;486553;244;27513;-76
2023/02/12 02:37:03;;;;;;;33.05;18.73;;;3.90;99.90;;;;;;486505;244;27544;-76
2023/02/12 02:39:04;;;;;;;30.15;17.52;;;3.90;99.90;;;;;;486520;244;27467;-75
2023/02/12 02:41:05;;;;;;;23.35;15.95;;;3.90;99.90;;;;;;486489;244;27930;-76
2023/02/12 02:43:07;;;;;;;31.62;18.42;;;3.90;99.90;;;;;;486500;244;27398;-76
2023/02/12 02:45:08;;;;;;;26.70;16.00;;;3.90;99.90;;;;;;486467;244;27474;-76
2023/02/12 02:47:09;;;;;;;29.23;17.33;;;3.90;99.90;;;;;;486559;244;27532;-76
2023/02/12 02:49:10;;;;;;;26.12;15.73;;;3.90;99.90;;;;;;486551;244;27442;-76
2023/02/12 02:51:12;;;;;;;30.35;17.65;;;3.90;99.90;;;;;;486526;244;27510;-77
2023/02/12 02:53:13;;;;;;;23.40;17.00;;;3.90;99.90;;;;;;486494;244;27859;-76
2023/02/12 02:55:14;;;;;;;28.27;16.87;;;3.90;99.90;;;;;;486464;244;27998;-76
2023/02/12 02:57:15;;;;;;;26.10;16.37;;;3.90;99.90;;;;;;486537;244;27529;-75
2023/02/12 02:59:17;;;;;;;25.88;15.77;;;3.90;99.90;;;;;;486513;244;27414;-76
2023/02/12 03:01:18;;;;;;;25.52;16.30;;;3.90;99.90;;;;;;486511;244;27552;-77
2023/02/12 03:03:19;;;;;;;30.35;16.87;;;3.90;99.90;;;;;;486487;244;27553;-77
2023/02/12 03:05:20;;;;;;;24.77;15.23;;;3.90;99.90;;;;;;486429;244;27930;-76
2023/02/12 03:07:22;;;;;;;26.15;16.17;;;3.90;99.90;;;;;;486519;244;28104;-77
2023/02/12 03:09:23;;;;;;;25.23;15.68;;;3.90;99.90;;;;;;486528;244;27406;-75
2023/02/12 03:11:24;;;;;;;23.42;15.50;;;3.80;99.90;;;;;;486521;244;27443;-77
2023/02/12 03:13:25;;;;;;;24.77;16.55;;;3.80;99.90;;;;;;486489;244;27509;-76
2023/02/12 03:15:27;;;;;;;24.17;15.65;;;3.90;99.90;;;;;;486488;244;27482;-76
2023/02/12 03:17:28;;;;;;;23.92;16.12;;;3.80;99.90;;;;;;486543;244;28071;-76
2023/02/12 03:19:29;;;;;;;27.75;18.10;;;3.80;99.90;;;;;;486541;244;27929;-76
2023/02/12 03:21:30;;;;;;;25.55;15.15;;;3.80;99.90;;;;;;486516;244;27533;-77
2023/02/12 03:23:32;;;;;;;29.73;16.83;;;3.80;99.90;;;;;;486495;244;27395;-76
2023/02/12 03:25:33;;;;;;;30.02;16.80;;;3.80;99.90;;;;;;486477;244;27550;-77
2023/02/12 03:27:34;;;;;;;24.75;15.88;;;3.80;99.90;;;;;;486509;244;27454;-76
2023/02/12 03:29:35;;;;;;;29.98;17.42;;;3.80;99.90;;;;;;486563;244;27409;-76
2023/02/12 03:31:37;;;;;;;29.12;16.65;;;3.80;99.90;;;;;;486542;244;27945;-76
2023/02/12 03:33:38;;;;;;;24.75;15.45;;;3.80;99.90;;;;;;486514;244;27874;-75
2023/02/12 03:35:39;;;;;;;28.73;16.80;;;3.80;99.90;;;;;;486485;244;27466;-76
2023/02/12 03:37:41;;;;;;;23.95;14.63;;;3.80;99.90;;;;;;486549;244;27442;-76
2023/02/12 03:39:42;;;;;;;26.25;15.77;;;3.80;99.90;;;;;;486529;244;27415;-76
2023/02/12 03:41:43;;;;;;;30.42;17.25;;;3.80;99.90;;;;;;486551;244;27434;-77
2023/02/12 03:43:44;;;;;;;21.58;14.07;;;3.80;99.90;;;;;;486525;244;27498;-76
2023/02/12 03:45:46;;;;;;;26.40;14.68;;;3.80;99.90;;;;;;486478;244;28095;-76
2023/02/12 03:47:47;;;;;;;26.95;16.27;;;3.80;99.90;;;;;;486552;244;27466;-77
2023/02/12 03:49:48;;;;;;;26.40;15.50;;;3.80;99.90;;;;;;486505;244;27391;-76
2023/02/12 03:51:49;;;;;;;24.05;15.85;;;3.90;99.90;;;;;;486517;244;27584;-76
2023/02/12 03:53:51;;;;;;;23.62;14.82;;;3.80;99.90;;;;;;486519;244;27406;-76
2023/02/12 03:55:52;;;;;;;22.90;14.57;;;3.80;99.90;;;;;;486545;244;27454;-76
2023/02/12 03:57:53;;;;;;;23.23;14.40;;;3.80;99.90;;;;;;486586;244;28100;-78
2023/02/12 03:59:54;;;;;;;25.37;15.68;;;3.80;99.90;;;;;;486595;244;28178;-76
2023/02/12 04:01:56;;;;;;;22.17;14.20;;;3.80;99.90;;;;;;486553;244;27450;-78
2023/02/12 04:03:57;;;;;;;25.85;15.93;;;3.80;99.90;;;;;;486535;244;27429;-76
2023/02/12 04:05:58;;;;;;;23.48;15.27;;;3.80;99.90;;;;;;486543;244;27552;-77
2023/02/12 04:07:59;;;;;;;28.20;16.58;;;3.80;99.90;;;;;;486577;244;27447;-77
2023/02/12 04:10:01;;;;;;;28.62;16.50;;;3.80;99.90;;;;;;486567;244;27419;-76
2023/02/12 04:12:02;;;;;;;22.23;14.55;;;3.80;99.90;;;;;;486554;244;27924;-77
2023/02/12 04:14:03;;;;;;;29.35;15.68;;;3.80;99.90;;;;;;486503;244;27881;-77
2023/02/12 04:16:04;;;;;;;21.87;14.85;;;3.70;99.90;;;;;;486440;244;27557;-76
2023/02/12 04:18:06;;;;;;;29.52;16.62;;;3.80;99.90;;;;;;486342;244;27527;-76
2023/02/12 04:20:07;;;;;;;23.15;15.82;;;3.80;99.90;;;;;;486406;244;27402;-77
2023/02/12 04:22:08;;;;;;;25.58;14.68;;;3.80;99.90;;;;;;486385;244;27489;-77
2023/02/12 04:24:09;;;;;;;28.70;16.62;;;3.80;99.90;;;;;;486378;244;27533;-76
2023/02/12 04:26:11;;;;;;;25.02;15.95;;;3.80;99.90;;;;;;486484;244;27924;-76
2023/02/12 04:28:12;;;;;;;44.10;22.92;;;3.80;99.90;;;;;;486534;244;27952;-74
2023/02/12 04:30:13;;;;;;;38.85;22.55;;;4.00;99.90;;;;;;486504;244;27517;-75
2023/02/12 04:32:14;;;;;;;35.80;21.33;;;4.20;99.90;;;;;;486501;244;27566;-77
2023/02/12 04:34:16;;;;;;;50.15;26.33;;;4.30;99.90;;;;;;486468;244;27398;-76
2023/02/12 04:36:17;;;;;;;53.45;26.48;;;4.40;99.90;;;;;;486475;244;27466;-77
2023/02/12 04:38:18;;;;;;;50.97;25.12;;;4.50;99.90;;;;;;486585;244;27521;-76
2023/02/12 04:40:20;;;;;;;41.37;22.33;;;4.40;99.90;;;;;;486492;244;28006;-76
2023/02/12 04:42:21;;;;;;;38.72;20.95;;;4.40;99.90;;;;;;486542;244;28032;-77
2023/02/12 04:44:22;;;;;;;45.42;24.00;;;4.40;99.90;;;;;;486528;244;27410;-75
2023/02/12 04:46:23;;;;;;;40.53;23.12;;;4.50;99.90;;;;;;486538;244;27416;-76
2023/02/12 04:48:25;;;;;;;23.87;16.85;;;4.50;99.90;;;;;;486527;244;27453;-77
2023/02/12 04:50:26;;;;;;;29.10;15.50;;;4.40;99.90;;;;;;486503;244;27415;-76
2023/02/12 04:52:27;;;;;;;23.58;16.23;;;4.30;99.90;;;;;;486514;244;28056;-77
2023/02/12 04:54:28;;;;;;;25.80;16.02;;;4.20;99.90;;;;;;486493;244;28632;-75
2023/02/12 04:56:30;;;;;;;28.10;16.02;;;4.10;99.90;;;;;;486524;244;27517;-75
2023/02/12 04:58:31;;;;;;;28.15;17.35;;;4.20;99.90;;;;;;486527;244;27541;-77
2023/02/12 05:00:32;;;;;;;29.48;18.35;;;4.20;99.90;;;;;;486529;244;27390;-76
2023/02/12 05:02:33;;;;;;;30.50;17.10;;;4.30;99.90;;;;;;486506;244;27454;-75
2023/02/12 05:04:35;;;;;;;32.58;18.50;;;4.30;99.90;;;;;;486515;244;27474;-76
2023/02/12 05:06:36;;;;;;;32.75;18.58;;;4.30;99.90;;;;;;486536;244;27935;-75
2023/02/12 05:08:37;;;;;;;34.88;18.73;;;4.40;99.90;;;;;;486534;244;27929;-77
2023/02/12 05:10:38;;;;;;;32.90;18.35;;;4.40;99.90;;;;;;486513;244;27391;-75
2023/02/12 05:12:40;;;;;;;36.38;20.15;;;4.30;99.90;;;;;;486495;244;27532;-77
2023/02/12 05:14:41;;;;;;;32.55;17.83;;;4.40;99.90;;;;;;486484;244;27398;-76
2023/02/12 05:16:42;;;;;;;31.45;19.92;;;4.40;99.90;;;;;;486526;244;27513;-77
2023/02/12 05:18:43;;;;;;;32.63;18.12;;;4.50;99.90;;;;;;486551;244;28021;-76
2023/02/12 05:20:45;;;;;;;50.30;26.48;;;4.50;99.90;;;;;;486535;244;27878;-75
2023/02/12 05:22:46;;;;;;;46.33;23.92;;;4.50;99.90;;;;;;486534;244;27522;-75
2023/02/12 05:24:47;;;;;;;37.40;21.92;;;4.50;99.90;;;;;;486527;244;27391;-76
2023/02/12 05:26:48;;;;;;;46.42;23.70;;;4.60;99.90;;;;;;486587;244;27437;-77
2023/02/12 05:28:50;;;;;;;47.25;24.20;;;4.60;99.90;;;;;;486587;244;27545;-77
2023/02/12 05:30:51;;;;;;;35.65;19.83;;;4.60;99.90;;;;;;486553;244;27883;-75
2023/02/12 05:32:52;;;;;;;41.15;20.90;;;4.60;99.90;;;;;;486521;244;28031;-75
2023/02/12 05:34:54;;;;;;;34.38;21.10;;;4.60;99.90;;;;;;486534;244;27398;-76
2023/02/12 05:36:55;;;;;;;32.45;19.30;;;4.60;99.90;;;;;;486539;244;27438;-75
2023/02/12 05:38:56;;;;;;;38.88;21.65;;;4.60;99.90;;;;;;486564;244;27477;-77
2023/02/12 05:40:57;;;;;;;35.63;20.05;;;4.60;99.90;;;;;;486524;244;27399;-75
2023/02/12 05:42:59;;;;;;;36.78;19.65;;;4.60;99.90;;;;;;486463;244;27933;-76
2023/02/12 05:45:00;;;;;;;40.72;20.50;;;4.60;99.90;;;;;;486504;244;27926;-76
2023/02/12 05:47:01;;;;;;;33.05;18.95;;;4.60;99.90;;;;;;486512;244;27438;-76
2023/02/12 05:49:02;;;;;;;38.35;20.58;;;4.60;99.90;;;;;;486540;244;27580;-76
2023/02/12 05:51:04;;;;;;;34.42;20.25;;;4.50;99.90;;;;;;486518;244;27478;-77
2023/02/12 05:53:05;;;;;;;31.30;18.92;;;4.40;99.90;;;;;;486506;244;27477;-77
2023/02/12 05:55:06;;;;;;;29.83;18.25;;;4.40;99.90;;;;;;486498;244;28116;-75
2023/02/12 05:57:07;;;;;;;33.58;19.15;;;4.40;99.90;;;;;;486537;244;27974;-76
2023/02/12 05:59:09;;;;;;;31.80;19.17;;;4.40;99.90;;;;;;486549;244;27461;-76
2023/02/12 06:01:10;;;;;;;30.88;19.02;;;4.40;99.90;;;;;;486526;244;27470;-77
2023/02/12 06:03:11;;;;;;;29.92;17.37;;;4.40;99.90;;;;;;486509;244;27445;-76
2023/02/12 06:05:12;;;;;;;38.78;20.50;;;4.50;99.90;;;;;;486500;244;27792;-76
2023/02/12 06:07:14;;;;;;;32.42;18.62;;;4.40;99.90;;;;;;486515;244;27977;-75
2023/02/12 06:09:15;;;;;;;33.65;20.10;;;4.40;99.90;;;;;;486529;244;27580;-78
2023/02/12 06:11:16;;;;;;;34.83;19.65;;;4.40;99.90;;;;;;486507;244;27410;-75
2023/02/12 06:13:18;;;;;;;30.02;18.12;;;4.40;99.90;;;;;;486505;244;27510;-76
2023/02/12 06:15:19;;;;;;;31.08;17.23;;;4.40;99.90;;;;;;486510;244;27424;-75
2023/02/12 06:17:20;;;;;;;30.17;16.85;;;4.40;99.90;;;;;;486528;244;28096;-76
2023/02/12 06:19:23;;;;;;;32.75;18.92;;;4.40;99.90;;;;;;486533;244;28066;-75
2023/02/12 06:21:23;;;;;;;30.12;18.58;;;4.40;99.90;;;;;;486476;244;27494;-75
2023/02/12 06:23:24;;;;;;;38.92;21.30;;;4.50;99.90;;;;;;486488;244;27454;-77
2023/02/12 06:25:25;;;;;;;45.65;23.30;;;4.50;99.90;;;;;;486477;244;27484;-76
2023/02/12 06:27:26;;;;;;;35.42;19.70;;;4.50;99.90;;;;;;486530;244;27418;-76
2023/02/12 06:29:28;;;;;;;37.17;20.17;;;4.50;99.90;;;;;;486519;244;27994;-78
2023/02/12 06:31:29;;;;;;;30.55;17.80;;;4.50;99.90;;;;;;486490;244;27981;-76
2023/02/12 06:33:31;;;;;;;31.55;17.30;;;4.50;99.90;;;;;;486478;244;28098;-75
2023/02/12 06:35:31;;;;;;;37.28;20.48;;;4.50;99.90;;;;;;486527;244;27560;-76
2023/02/12 06:37:35;;;;;;;34.63;19.85;;;4.60;99.90;;;;;;486537;244;27474;-76
2023/02/12 06:39:34;;;;;;;35.78;20.00;;;4.60;99.90;;;;;;486494;243;27529;-76
2023/02/12 06:41:35;;;;;;;29.17;17.27;;;4.60;99.90;;;;;;486522;244;27406;-75
2023/02/12 06:43:36;;;;;;;54.65;26.77;;;4.60;99.90;;;;;;486490;244;27932;-76
2023/02/12 06:45:38;;;;;;;41.85;21.77;;;4.60;99.90;;;;;;486506;244;27427;-77
2023/02/12 06:47:39;;;;;;;33.05;19.75;;;4.70;99.90;;;;;;486494;244;27416;-75
2023/02/12 06:49:40;;;;;;;40.78;21.67;;;4.70;99.90;;;;;;486432;244;27577;-76
2023/02/12 06:51:41;;;;;;;32.35;19.27;;;4.70;99.90;;;;;;486374;244;27402;-75
2023/02/12 06:53:43;;;;;;;34.38;19.52;;;4.70;99.90;;;;;;486310;244;28133;-77
2023/02/12 06:55:44;;;;;;;38.53;21.20;;;4.70;99.90;;;;;;486448;244;28064;-76
2023/02/12 06:57:45;;;;;;;42.83;22.87;;;4.80;99.90;;;;;;486450;244;27473;-77
2023/02/12 06:59:46;;;;;;;36.15;19.90;;;4.80;99.90;;;;;;486542;244;27544;-76
2023/02/12 07:01:48;;;;;;;33.88;19.10;;;4.80;99.90;;;;;;486513;244;27418;-76
2023/02/12 07:03:49;;;;;;;29.40;16.75;;;4.70;99.90;;;;;;486525;244;27538;-77
2023/02/12 07:05:50;;;;;;;31.05;18.80;;;4.60;99.90;;;;;;486570;244;28001;-77
2023/02/12 07:07:52;;;;;;;62.30;26.00;;;4.60;99.90;;;;;;486554;244;27878;-76
2023/02/12 07:09:53;;;;;;;70.22;30.37;;;4.60;99.90;;;;;;486500;244;27481;-75
2023/02/12 07:11:55;;;;;;;80.05;30.95;;;4.60;99.90;;;;;;486493;244;27399;-75
2023/02/12 07:13:55;;;;;;;57.33;28.33;;;4.70;99.90;;;;;;486461;244;27484;-76
2023/02/12 07:15:57;;;;;;;56.58;26.77;;;4.70;99.90;;;;;;486519;244;27441;-75
2023/02/12 07:17:58;;;;;;;48.67;24.25;;;4.70;99.90;;;;;;486537;244;27872;-76
2023/02/12 07:19:59;;;;;;;61.55;28.60;;;4.80;99.90;;;;;;486523;244;27474;-76
2023/02/12 07:22:00;;;;;;;54.47;23.58;;;4.80;99.90;;;;;;486505;244;27619;-75
2023/02/12 07:24:02;;;;;;;87.82;31.73;;;4.80;99.90;;;;;;486482;244;27454;-77
2023/02/12 07:26:03;;;;;;;67.25;28.95;;;4.80;99.90;;;;;;486557;244;27468;-77
2023/02/12 07:28:04;;;;;;;98.60;35.17;;;4.80;99.90;;;;;;486535;244;27498;-77
2023/02/12 07:30:05;;;;;;;74.07;30.62;;;4.90;99.90;;;;;;486570;244;27878;-77
2023/02/12 07:32:07;;;;;;;65.00;27.35;;;4.90;99.90;;;;;;486297;244;27459;-77
2023/02/12 07:34:08;;;;;;;98.45;35.67;;;4.90;99.90;;;;;;486473;244;27444;-76
2023/02/12 07:36:09;;;;;;;67.80;27.87;;;4.90;99.90;;;;;;486522;244;27786;-77
2023/02/12 07:38:10;;;;;;;52.38;23.80;;;4.90;99.90;;;;;;486541;244;27465;-75
2023/02/12 07:40:12;;;;;;;50.92;23.98;;;4.90;99.90;;;;;;486490;244;27904;-75
2023/02/12 07:42:14;;;;;;;54.17;25.10;;;4.90;99.90;;;;;;486518;244;27981;-76
2023/02/12 07:44:14;;;;;;;67.45;29.02;;;4.90;99.90;;;;;;486440;244;27445;-77
2023/02/12 07:46:16;;;;;;;73.05;29.05;;;4.90;99.90;;;;;;486565;244;27876;-77
2023/02/12 07:48:17;;;;;;;62.85;28.75;;;4.90;99.90;;;;;;486538;244;27506;-76
2023/02/12 07:50:18;;;;;;;44.17;22.77;;;4.90;99.90;;;;;;486542;244;27532;-76
2023/02/12 07:52:19;;;;;;;45.95;22.15;;;4.90;99.90;;;;;;486475;244;27959;-76
2023/02/12 07:54:21;;;;;;;45.53;24.20;;;4.90;99.90;;;;;;486528;244;27508;-77
2023/02/12 07:56:22;;;;;;;51.00;24.55;;;5.00;99.90;;;;;;486590;244;27447;-77
2023/02/12 07:58:23;;;;;;;48.47;23.25;;;5.00;99.90;;;;;;486528;244;27419;-77
2023/02/12 08:00:24;;;;;;;49.10;23.12;;;5.00;99.90;;;;;;486504;244;27549;-76
2023/02/12 08:02:26;;;;;;;49.75;24.50;;;5.00;99.90;;;;;;486555;244;27864;-76
2023/02/12 08:04:27;;;;;;;56.63;25.35;;;5.10;99.90;;;;;;486490;244;28023;-76
2023/02/12 08:06:28;;;;;;;43.65;21.17;;;5.10;99.90;;;;;;486543;244;27434;-77
2023/02/12 08:08:29;;;;;;;72.87;30.77;;;5.10;99.90;;;;;;486506;244;27414;-75
2023/02/12 08:10:31;;;;;;;83.78;31.33;;;5.10;99.90;;;;;;486512;244;27462;-75
2023/02/12 08:12:32;;;;;;;53.92;26.10;;;5.10;99.90;;;;;;486513;244;27426;-76
2023/02/12 08:14:33;;;;;;;106.53;35.65;;;5.10;99.90;;;;;;486515;244;27945;-77
2023/02/12 08:16:34;;;;;;;87.32;31.77;;;5.00;99.90;;;;;;486571;244;27466;-76
2023/02/12 08:18:36;;;;;;;103.32;33.28;;;5.00;99.90;;;;;;486599;244;27473;-77
2023/02/12 08:20:37;;;;;;;108.20;37.10;;;5.00;99.90;;;;;;486565;244;27513;-77
2023/02/12 08:22:38;;;;;;;109.75;37.58;;;5.00;99.90;;;;;;486594;244;27421;-78
2023/02/12 08:24:41;;;;;;;113.50;38.28;;;5.10;99.90;;;;;;486569;244;27921;-76
2023/02/12 08:26:41;;;;;;;113.00;36.70;;;5.10;99.90;;;;;;486600;244;27464;-78
2023/02/12 08:28:42;;;;;;;105.40;34.92;;;5.10;99.90;;;;;;486576;244;27494;-77
2023/02/12 08:30:43;;;;;;;114.88;37.25;;;5.10;99.90;;;;;;486572;244;27537;-75
2023/02/12 08:32:45;;;;;;;122.30;39.15;;;5.10;99.90;;;;;;486482;244;27938;-75
2023/02/12 08:34:46;;;;;;;116.05;36.08;;;5.10;99.90;;;;;;486330;244;27557;-75
2023/02/12 08:36:47;;;;;;;126.10;37.55;;;5.10;99.90;;;;;;486440;244;27577;-77
2023/02/12 08:38:48;;;;;;;123.43;38.35;;;5.10;99.90;;;;;;486446;244;27418;-76
2023/02/12 08:40:50;;;;;;;118.22;39.20;;;5.10;99.90;;;;;;486439;244;27565;-77
2023/02/12 08:42:51;;;;;;;105.63;37.40;;;5.10;99.90;;;;;;486432;244;27932;-75
2023/02/12 08:44:52;;;;;;;112.65;38.08;;;5.10;99.90;;;;;;486483;244;27486;-77
2023/02/12 08:46:56;;;;;;;113.93;39.45;;;5.10;99.90;;;;;;486566;244;27439;-78
2023/02/12 08:48:55;;;;;;;100.38;37.95;;;5.10;99.90;;;;;;486358;244;27398;-75
2023/02/12 08:50:56;;;;;;;116.60;39.05;;;5.10;99.90;;;;;;486553;244;27450;-77
2023/02/12 08:52:57;;;;;;;99.50;36.60;;;5.10;99.90;;;;;;486537;244;27867;-76
2023/02/12 08:54:59;;;;;;;124.93;41.30;;;5.10;99.90;;;;;;486550;244;27425;-76
2023/02/12 08:57:00;;;;;;;110.68;36.88;;;5.20;99.90;;;;;;486581;244;27448;-78
2023/02/12 08:59:01;;;;;;;110.65;38.75;;;5.20;99.90;;;;;;486537;244;27549;-76
2023/02/12 09:01:03;;;;;;;107.28;38.95;;;5.20;99.90;;;;;;486537;244;27458;-76
2023/02/12 09:03:04;;;;;;;101.62;36.33;;;5.20;99.90;;;;;;486500;244;27853;-77
2023/02/12 09:05:05;;;;;;;109.72;38.45;;;5.20;99.90;;;;;;486566;244;27482;-76
2023/02/12 09:07:06;;;;;;;94.62;37.38;;;5.20;99.90;;;;;;486574;244;27540;-79
2023/02/12 09:09:07;;;;;;;109.35;36.30;;;5.30;99.90;;;;;;486531;244;27406;-76
2023/02/12 09:11:09;;;;;;;98.50;36.45;;;5.20;99.90;;;;;;486512;244;27930;-76
2023/02/12 09:13:10;;;;;;;107.10;37.63;;;5.20;99.90;;;;;;486454;244;27862;-76
2023/02/12 09:15:11;;;;;;;96.03;36.92;;;5.30;99.90;;;;;;486587;244;27426;-76
2023/02/12 09:17:13;;;;;;;103.55;39.78;;;5.30;99.90;;;;;;486524;244;27545;-77
2023/02/12 09:19:14;;;;;;;99.53;37.67;;;5.30;99.90;;;;;;486534;244;27391;-75
2023/02/12 09:21:15;;;;;;;94.82;38.15;;;5.30;99.90;;;;;;486520;244;28057;-76
2023/02/12 09:23:16;;;;;;;94.87;37.80;;;5.40;99.90;;;;;;486510;244;27833;-76
2023/02/12 09:25:18;;;;;;;95.10;36.45;;;5.30;99.90;;;;;;486558;244;27408;-77
2023/02/12 09:27:19;;;;;;;90.32;36.97;;;5.30;99.90;;;;;;486543;244;27465;-76
2023/02/12 09:29:20;;;;;;;102.90;40.95;;;5.40;99.90;;;;;;483241;244;36211;-77
2023/02/12 09:31:21;;;;;;;107.45;38.53;;;5.40;99.90;;;;;;486525;244;28060;-76
2023/02/12 09:33:23;;;;;;;86.28;36.83;;;5.40;99.90;;;;;;486555;244;27473;-77
2023/02/12 09:35:24;;;;;;;83.72;34.55;;;5.40;99.90;;;;;;486545;244;27406;-75
2023/02/12 09:37:25;;;;;;;98.03;38.47;;;5.40;99.90;;;;;;486530;244;27557;-76
2023/02/12 09:39:29;;;;;;;90.93;35.65;;;5.50;99.90;;;;;;486527;244;27406;-76
2023/02/12 09:41:28;;;;;;;82.75;36.13;;;5.50;99.90;;;;;;486435;244;27905;-75
2023/02/12 09:43:29;;;;;;;91.47;36.55;;;5.60;99.90;;;;;;486566;244;27462;-76
2023/02/12 09:45:31;;;;;;;88.85;35.40;;;5.60;99.90;;;;;;486580;244;27525;-75
2023/02/12 09:47:31;;;;;;;95.00;37.35;;;5.60;99.90;;;;;;486538;244;27480;-77
2023/02/12 09:49:33;;;;;;;86.97;37.53;;;5.60;99.90;;;;;;486525;244;28023;-76
2023/02/12 09:51:34;;;;;;;84.53;34.38;;;5.60;99.90;;;;;;486482;244;28012;-76
2023/02/12 09:53:35;;;;;;;77.90;35.90;;;5.60;99.90;;;;;;486588;244;27509;-76
2023/02/12 09:55:37;;;;;;;72.32;33.45;;;5.70;99.90;;;;;;486574;244;27410;-76
2023/02/12 09:57:38;;;;;;;101.03;38.40;;;5.80;99.90;;;;;;486568;244;27472;-76
2023/02/12 09:59:39;;;;;;;86.82;36.17;;;5.80;99.90;;;;;;486552;244;28448;-77
2023/02/12 10:01:40;;;;;;;80.60;33.60;;;5.80;99.90;;;;;;486547;244;28020;-76
2023/02/12 10:03:42;;;;;;;67.78;32.88;;;5.80;99.90;;;;;;486611;244;27433;-78
2023/02/12 10:05:43;;;;;;;67.90;32.00;;;5.90;99.90;;;;;;486624;244;27406;-76
2023/02/12 10:07:44;;;;;;;63.77;29.80;;;5.90;99.90;;;;;;486548;244;27450;-77
2023/02/12 10:09:45;;;;;;;60.42;29.67;;;5.90;99.90;;;;;;486520;244;28176;-76
2023/02/12 10:11:47;;;;;;;66.35;30.58;;;6.00;99.90;;;;;;486494;244;27936;-77
2023/02/12 10:13:48;;;;;;;66.70;31.70;;;6.00;99.90;;;;;;486575;244;27429;-77
2023/02/12 10:15:49;;;;;;;55.90;26.70;;;6.00;99.90;;;;;;486574;244;27406;-76
2023/02/12 10:17:50;;;;;;;54.42;27.30;;;6.10;99.90;;;;;;486527;244;27569;-75
2023/02/12 10:19:52;;;;;;;51.40;27.07;;;6.10;99.90;;;;;;486543;244;27915;-74
2023/02/12 10:21:53;;;;;;;49.33;24.07;;;6.10;99.90;;;;;;486501;244;28396;-75
2023/02/12 10:23:54;;;;;;;47.62;25.27;;;6.20;99.90;;;;;;486575;244;29289;-78